Overview Statistics Trail Chart Weather Telemetry Raw packets
 

This is the latest recevied weather packets stored in our database for station/object 4S6DRJ-13. If no packets are shown the sender has not sent any weather packets the latest 10 day(s).

<< 82 83 84 85 86 87 88 >>
Time Temp. Humidity Pressure Rain* Wind** Luminosity Snow
1788329880 31.11° C 70% 1010.2 hPa 0 mm 0.89 m/s, 224° 580 W/m² -
1788329819 31.11° C 72% 1010.2 hPa 0 mm 0.89 m/s, 207° 1132 W/m² -
1788329758 30.56° C 73% 1010.2 hPa 0 mm 0.45 m/s, 225° 1134 W/m² -
1788329697 30.56° C 73% 1010.1 hPa 0 mm 1.79 m/s, 225° 1139 W/m² -
1788329636 30.56° C 73% 1010.3 hPa 0 mm 0.89 m/s, 158° 1141 W/m² -
1788329576 30.56° C 71% 1010.3 hPa 0 mm 1.79 m/s, 225° 1107 W/m² -
1788329514 30.56° C 71% 1010.4 hPa 0 mm 3.58 m/s, 234° 841 W/m² -
1788329453 31.11° C 71% 1010.2 hPa 0 mm 2.24 m/s, 276° 631 W/m² -
1788329392 31.11° C 71% 1010.5 hPa 0 mm 2.24 m/s, 247° 353 W/m² -
1788329331 31.11° C 71% 1010.3 hPa 0 mm 1.79 m/s, 222° 309 W/m² -
1788329271 31.67° C 70% 1010.4 hPa 0 mm 3.13 m/s, 259° 262 W/m² -
1788329209 31.67° C 69% 1010.3 hPa 0 mm 2.24 m/s, 164° 267 W/m² -
1788329150 31.67° C 69% 1010.3 hPa 0 mm 1.34 m/s, 221° 317 W/m² -
1788329087 31.67° C 69% 1010.3 hPa 0 mm 2.68 m/s, 144° 337 W/m² -
1788329026 31.67° C 70% 1010.2 hPa 0 mm 1.79 m/s, 251° 874 W/m² -
1788328965 31.67° C 69% 1010.1 hPa 0 mm 1.34 m/s, 287° 1133 W/m² -
1788328904 31.67° C 71% 1010.4 hPa 0 mm 0.89 m/s, 209° 1119 W/m² -
1788328843 31.11° C 71% 1010.4 hPa 0 mm 0.89 m/s, 187° 1139 W/m² -
1788328782 31.11° C 71% 1010.4 hPa 0 mm 1.79 m/s, 223° 1135 W/m² -
1788328721 31.67° C 71% 1010.2 hPa 0 mm 0.45 m/s, 353° 323 W/m² -
1788328660 31.67° C 70% 1010.5 hPa 0 mm 1.34 m/s, 202° 1134 W/m² -
1788328600 31.67° C 69% 1010.4 hPa 0 mm 3.58 m/s, 180° 338 W/m² -
1788328539 31.67° C 70% 1010.2 hPa 0 mm 0.89 m/s, 195° 1128 W/m² -
1788328477 31.11° C 71% 1010.3 hPa 0 mm 1.34 m/s, 247° 1139 W/m² -
1788328416 31.11° C 72% 1010.5 hPa 0 mm 0.45 m/s, 133° 1125 W/m² -

* Rain latest hour (hover to see other rain measurements)
** Current wind speed in m/s (hover to see current wind gust speed)